首页
METAR-TAF:

METAR-TAF

机场 :

牛津, 英格兰

纬度: 51-50-13N, 经度: 1-19-12W, 海拔: 82米

当前天气观测

该预报发布于24分钟前的10:50 UTC
风速15节,风向西南
温度 18°C
湿度 68%
气压 1014 hPa
能见度10公里或以上
少量云层高于2500英尺
散云层高于3700英尺

METAR: EGTK 161050Z 22015KT 9999 FEW025 SCT037 18/12 Q1014

时间: 12:14 (11:14 UTC)

预报

该预报发布于3小时和18分钟前的07:56 UTC
预报有效从16日的 09点(UTC)到 16日的 18点(UTC)
风速8节,风向
能见度10公里或以上
散云层高于2500英尺
短暂存在
从 16日的 09点(UTC)到 16日的 18点(UTC)
能見度: 6000
多云层高于1400英尺
阵雨
几率 40% :
短暂存在
从 16日的 09点(UTC)到 16日的 15点(UTC)
风速15节,风向,有时为25节阵风

TAF: EGTK 160756Z 1609/1618 19008KT 9999 SCT025 TEMPO 1609/1618 6000 SHRA BKN014 PROB40 TEMPO 1609/1615 19015G25KT

超过4000个机场的气象观测和天气预报(METAR&TAF报告)。

可查询的气象台以黄色和红色小点在地图上表示。

将鼠标移到小点上方,可查看气象台名称。

然后点击查看天气观测和预报。

如需切换地图:点击带黑十字的绿色按钮放大地图;点击带横线的绿色按钮缩小地图;或者点击绿色箭头查看邻近地区的地图。


METAR-TAF: